createdAt,value
2019-03-27T00:03:43.530Z,10.53
2019-03-27T00:07:48.890Z,10.10
2019-03-27T00:11:54.308Z,9.50
2019-03-27T00:15:59.703Z,11.33
2019-03-27T00:20:06.436Z,11.18
2019-03-27T00:24:11.869Z,11.10
2019-03-27T00:28:17.540Z,10.88
2019-03-27T00:32:24.026Z,11.88
2019-03-27T00:36:29.407Z,11.88
2019-03-27T00:40:34.694Z,12.13
2019-03-27T00:44:40.203Z,12.13
2019-03-27T00:48:45.496Z,12.13
2019-03-27T00:52:51.030Z,12.13
2019-03-27T00:56:56.322Z,13.20
2019-03-27T01:01:12.777Z,12.50
2019-03-27T01:05:18.163Z,14.38
2019-03-27T01:09:23.504Z,14.28
2019-03-27T01:13:29.306Z,14.47
2019-03-27T01:17:34.736Z,14.45
2019-03-27T01:21:40.351Z,15.95
2019-03-27T01:25:45.762Z,15.13
2019-03-27T01:29:51.116Z,13.95
2019-03-27T01:33:56.618Z,13.28
2019-03-27T01:38:01.965Z,12.15
2019-03-27T01:42:07.567Z,12.47
2019-03-27T01:46:12.924Z,12.33
2019-03-27T01:50:18.333Z,12.25
2019-03-27T01:54:24.604Z,11.93
2019-03-27T01:58:29.957Z,11.83
2019-03-27T02:02:35.876Z,12.55
2019-03-27T02:06:41.235Z,13.38
2019-03-27T02:10:46.569Z,13.20
2019-03-27T02:14:51.892Z,12.37
2019-03-27T02:18:57.321Z,13.35
2019-03-27T02:23:02.807Z,13.88
2019-03-27T02:27:08.089Z,15.00
2019-03-27T02:31:16.483Z,14.20
2019-03-27T02:35:21.825Z,15.63
2019-03-27T02:39:27.107Z,14.87
2019-03-27T02:43:32.760Z,15.20
2019-03-27T02:47:38.129Z,16.12
2019-03-27T02:51:43.786Z,14.58
2019-03-27T02:55:49.041Z,14.93
2019-03-27T02:59:54.404Z,16.52
2019-03-27T03:03:59.943Z,16.93
2019-03-27T03:08:05.385Z,18.10
2019-03-27T03:12:10.868Z,16.80
2019-03-27T03:16:16.289Z,19.45
2019-03-27T03:20:21.713Z,17.48
2019-03-27T03:24:28.061Z,18.37
2019-03-27T03:28:33.414Z,17.42
2019-03-27T03:32:39.264Z,19.07
2019-03-27T03:36:46.026Z,18.40
2019-03-27T03:40:51.472Z,19.45
2019-03-27T03:44:56.755Z,19.52
2019-03-27T03:49:02.109Z,20.32
2019-03-27T03:53:09.858Z,20.00
2019-03-27T03:57:15.892Z,18.67
2019-03-27T04:01:22.780Z,21.05
2019-03-27T04:05:28.042Z,21.77
2019-03-27T04:09:33.397Z,21.70
2019-03-27T04:13:38.924Z,22.27
2019-03-27T04:17:44.220Z,21.37
2019-03-27T04:21:49.716Z,21.80
2019-03-27T04:26:08.812Z,22.17
2019-03-27T04:30:02.481Z,22.20
2019-03-27T04:34:09.166Z,23.32
2019-03-27T04:38:14.440Z,22.30
2019-03-27T04:42:19.795Z,22.90
2019-03-27T04:46:25.076Z,23.00
2019-03-27T04:50:30.357Z,24.50
2019-03-27T04:54:36.561Z,23.27
2019-03-27T04:58:41.960Z,24.52
2019-03-27T05:02:48.678Z,24.45
2019-03-27T05:06:53.942Z,26.65
2019-03-27T05:10:59.520Z,24.20
2019-03-27T05:15:05.202Z,24.92
2019-03-27T05:19:12.480Z,23.95
2019-03-27T05:23:18.001Z,22.95
2019-03-27T05:27:23.351Z,22.37
2019-03-27T05:31:29.099Z,24.67
2019-03-27T05:35:34.467Z,25.65
2019-03-27T05:39:40.038Z,24.07
2019-03-27T05:43:45.621Z,25.30
2019-03-27T05:47:59.523Z,23.15
2019-03-27T05:51:59.475Z,26.97
2019-03-27T05:56:05.804Z,24.95
2019-03-27T06:00:13.535Z,24.98
2019-03-27T06:04:19.117Z,25.70
2019-03-27T06:08:24.397Z,22.40
2019-03-27T06:12:29.884Z,25.05
2019-03-27T06:16:35.177Z,23.77
2019-03-27T06:20:40.540Z,23.18
2019-03-27T06:24:45.981Z,23.62
2019-03-27T06:28:51.452Z,21.05
2019-03-27T06:32:56.948Z,23.22
2019-03-27T06:37:02.219Z,21.57
2019-03-27T06:41:07.757Z,21.68
2019-03-27T06:45:13.657Z,23.67
2019-03-27T06:49:18.942Z,22.50
2019-03-27T06:53:25.333Z,24.10
2019-03-27T06:57:30.626Z,22.95
2019-03-27T07:01:35.897Z,24.52
2019-03-27T07:05:41.298Z,24.60
2019-03-27T07:09:46.675Z,27.10
2019-03-27T07:13:52.223Z,25.32
2019-03-27T07:17:58.905Z,23.75
2019-03-27T07:22:04.575Z,21.97
2019-03-27T07:26:10.037Z,23.07
2019-03-27T07:30:16.725Z,22.58
2019-03-27T07:34:22.145Z,24.72
2019-03-27T07:38:27.429Z,24.12
2019-03-27T07:42:32.764Z,21.73
2019-03-27T07:46:38.117Z,21.70
2019-03-27T07:50:43.629Z,23.40
2019-03-27T07:54:49.137Z,20.62
2019-03-27T07:58:54.492Z,22.05
2019-03-27T08:02:59.902Z,22.32
2019-03-27T08:07:05.739Z,21.55
2019-03-27T08:11:11.018Z,21.93
2019-03-27T08:15:16.767Z,22.20
2019-03-27T08:19:22.132Z,22.13
2019-03-27T08:23:27.688Z,21.42
2019-03-27T08:27:32.972Z,22.25
2019-03-27T08:31:38.281Z,22.02
2019-03-27T08:35:43.725Z,20.43
2019-03-27T08:39:49.012Z,22.65
2019-03-27T08:43:54.364Z,24.47
2019-03-27T08:47:59.719Z,24.27
2019-03-27T08:52:05.168Z,23.95
2019-03-27T08:56:10.594Z,22.60
2019-03-27T09:00:16.730Z,22.98
2019-03-27T09:04:22.106Z,24.20
2019-03-27T09:08:27.491Z,23.55
2019-03-27T09:12:32.772Z,25.10
2019-03-27T09:16:38.853Z,23.67
2019-03-27T09:20:44.477Z,23.32
2019-03-27T09:24:50.166Z,24.30
2019-03-27T09:28:55.713Z,22.93
2019-03-27T09:33:01.082Z,22.05
2019-03-27T09:37:06.440Z,22.35
2019-03-27T09:41:11.830Z,25.30
2019-03-27T09:45:17.667Z,22.55
2019-03-27T09:49:23.080Z,22.87
2019-03-27T09:53:28.518Z,21.52
2019-03-27T09:57:33.857Z,22.02
2019-03-27T10:01:39.219Z,17.98
2019-03-27T10:05:44.643Z,18.50
2019-03-27T10:09:50.590Z,18.15
2019-03-27T10:13:56.080Z,16.85
2019-03-27T10:18:01.701Z,19.32
2019-03-27T10:22:07.062Z,18.52
2019-03-27T10:26:12.495Z,17.82
2019-03-27T10:30:18.245Z,15.93
2019-03-27T10:34:23.917Z,16.93
2019-03-27T10:38:29.257Z,15.95
2019-03-27T10:42:34.640Z,14.18
2019-03-27T10:46:39.988Z,14.23
2019-03-27T10:50:45.342Z,14.45
2019-03-27T10:54:50.592Z,16.05
2019-03-27T10:58:56.032Z,17.50
2019-03-27T11:03:01.483Z,14.03
2019-03-27T11:07:06.758Z,15.48
2019-03-27T11:11:12.123Z,14.47
2019-03-27T11:15:17.644Z,16.73
2019-03-27T11:19:22.996Z,15.30
2019-03-27T11:23:28.696Z,13.10
2019-03-27T11:27:34.120Z,14.20
2019-03-27T11:31:39.400Z,14.03
2019-03-27T11:35:45.144Z,14.73
2019-03-27T11:39:50.555Z,14.55
2019-03-27T11:43:55.870Z,14.85
2019-03-27T11:48:01.313Z,14.70
2019-03-27T11:52:06.760Z,14.65
2019-03-27T11:56:12.039Z,13.50
2019-03-27T12:00:17.448Z,13.85
2019-03-27T12:04:22.794Z,13.65
2019-03-27T12:08:28.283Z,13.35
2019-03-27T12:12:33.660Z,13.68
2019-03-27T12:16:39.100Z,12.45
2019-03-27T12:20:57.700Z,14.28
2019-03-27T12:24:51.617Z,12.63
2019-03-27T12:28:56.918Z,13.68
2019-03-27T12:33:03.329Z,12.93
2019-03-27T12:37:08.591Z,12.75
2019-03-27T12:41:13.893Z,11.75
2019-03-27T12:45:19.224Z,11.78
2019-03-27T12:49:24.637Z,13.15
2019-03-27T12:53:30.334Z,13.50
2019-03-27T12:57:35.747Z,11.35
2019-03-27T13:01:41.033Z,11.95
2019-03-27T13:05:46.308Z,11.43
2019-03-27T13:09:51.740Z,11.00
2019-03-27T13:13:57.052Z,11.10
2019-03-27T13:18:02.518Z,10.78
2019-03-27T13:22:07.886Z,10.72
2019-03-27T13:26:13.153Z,10.98
2019-03-27T13:30:18.879Z,11.20
2019-03-27T13:34:24.234Z,9.88
2019-03-27T13:38:29.502Z,9.48
2019-03-27T13:42:34.904Z,10.03
2019-03-27T13:46:40.279Z,10.00
2019-03-27T13:50:45.620Z,10.72
2019-03-27T13:54:50.972Z,9.33
2019-03-27T13:58:56.235Z,10.75
2019-03-27T14:03:01.664Z,10.38
2019-03-27T14:07:07.023Z,10.78
2019-03-27T14:11:12.438Z,10.00
2019-03-27T14:15:18.781Z,9.45
2019-03-27T14:19:24.203Z,8.83
2019-03-27T14:23:29.567Z,9.45
2019-03-27T14:27:35.333Z,9.70
2019-03-27T14:31:40.603Z,9.70
2019-03-27T14:35:46.044Z,9.05
2019-03-27T14:39:51.410Z,9.73
2019-03-27T14:43:56.788Z,8.90
2019-03-27T14:48:02.085Z,9.20
2019-03-27T14:52:08.638Z,10.03
2019-03-27T14:56:14.420Z,10.68
2019-03-27T15:00:20.136Z,9.03
2019-03-27T15:04:25.448Z,9.33
2019-03-27T15:08:30.908Z,19.62
2019-03-27T15:12:36.441Z,10.03
2019-03-27T15:16:41.775Z,9.03
2019-03-27T15:20:47.128Z,9.08
2019-03-27T15:24:53.486Z,9.78
2019-03-27T15:28:58.758Z,9.43
2019-03-27T15:33:04.328Z,9.03
2019-03-27T15:37:09.655Z,9.00
2019-03-27T15:41:15.041Z,9.25
2019-03-27T15:45:21.204Z,8.58
2019-03-27T15:49:26.788Z,8.48
2019-03-27T15:53:32.277Z,9.08
2019-03-27T15:57:37.724Z,9.08
2019-03-27T16:01:43.517Z,8.35
2019-03-27T16:05:48.952Z,8.05
2019-03-27T16:09:54.406Z,8.50
2019-03-27T16:13:59.692Z,7.60
2019-03-27T16:18:05.478Z,7.65
2019-03-27T16:22:11.110Z,7.53
2019-03-27T16:26:16.477Z,8.50
2019-03-27T16:30:22.815Z,8.93
2019-03-27T16:34:28.185Z,9.45
2019-03-27T16:38:33.528Z,9.00
2019-03-27T16:42:39.866Z,9.45
2019-03-27T16:46:45.320Z,8.78
2019-03-27T16:50:51.065Z,8.90
2019-03-27T16:54:56.551Z,7.50
2019-03-27T16:59:02.291Z,7.03
2019-03-27T17:03:07.749Z,10.03
2019-03-27T17:07:13.023Z,11.08
2019-03-27T17:11:18.482Z,8.33
2019-03-27T17:15:24.220Z,7.50
2019-03-27T17:19:29.584Z,7.85
2019-03-27T17:23:35.396Z,6.95
2019-03-27T17:27:40.820Z,7.42
2019-03-27T17:31:46.190Z,6.72
2019-03-27T17:35:51.628Z,9.05
2019-03-27T17:39:56.994Z,8.05
2019-03-27T17:44:02.407Z,7.20
2019-03-27T17:48:08.036Z,7.10
2019-03-27T17:52:13.498Z,6.85
2019-03-27T17:56:18.929Z,7.42
2019-03-27T18:00:40.979Z,11.03
2019-03-27T18:04:46.844Z,7.85
2019-03-27T18:08:52.206Z,8.20
2019-03-27T18:12:57.645Z,8.18
2019-03-27T18:17:03.298Z,8.33
2019-03-27T18:21:09.792Z,8.53
2019-03-27T18:25:15.492Z,8.30
2019-03-27T18:29:21.059Z,8.83
2019-03-27T18:33:26.620Z,9.00
2019-03-27T18:37:32.121Z,8.10
2019-03-27T18:41:38.927Z,8.38
2019-03-27T18:45:44.412Z,8.60
2019-03-27T18:49:49.989Z,8.78
2019-03-27T18:53:59.907Z,8.93
2019-03-27T18:58:02.653Z,8.63
2019-03-27T19:02:08.172Z,8.63
2019-03-27T19:06:13.768Z,9.08
2019-03-27T19:10:19.314Z,14.35
2019-03-27T19:14:24.831Z,18.52
2019-03-27T19:18:30.171Z,17.80
2019-03-27T19:22:35.695Z,12.23
2019-03-27T19:26:40.972Z,14.15
2019-03-27T19:30:46.964Z,13.70
2019-03-27T19:34:52.561Z,14.20
2019-03-27T19:38:57.917Z,12.68
2019-03-27T19:43:03.536Z,16.67
2019-03-27T19:47:09.467Z,11.48
2019-03-27T19:51:15.049Z,11.78
2019-03-27T19:55:20.761Z,28.73
2019-03-27T19:59:26.034Z,12.80
2019-03-27T20:03:34.541Z,11.65
2019-03-27T20:07:39.133Z,11.30
2019-03-27T20:11:44.823Z,11.93
2019-03-27T20:15:50.551Z,12.20
2019-03-27T20:19:55.936Z,13.10
2019-03-27T20:24:01.780Z,12.30
2019-03-27T20:28:07.220Z,13.25
2019-03-27T20:32:12.963Z,12.33
2019-03-27T20:36:18.570Z,12.73
2019-03-27T20:40:24.320Z,14.38
2019-03-27T20:44:31.492Z,13.55
2019-03-27T20:48:36.938Z,12.95
2019-03-27T20:52:44.788Z,13.28
2019-03-27T20:56:50.248Z,14.28
2019-03-27T21:00:55.623Z,13.40
2019-03-27T21:05:01.084Z,12.18
2019-03-27T21:09:07.549Z,12.82
2019-03-27T21:13:13.120Z,12.75
2019-03-27T21:17:18.660Z,13.78
2019-03-27T21:21:24.260Z,12.55
2019-03-27T21:25:29.729Z,13.58
2019-03-27T21:29:35.182Z,13.10
2019-03-27T21:33:40.803Z,14.30
2019-03-27T21:37:46.283Z,15.23
2019-03-27T21:41:52.055Z,14.45
2019-03-27T21:45:57.516Z,15.03
2019-03-27T21:50:03.086Z,14.68
2019-03-27T21:54:08.800Z,15.08
2019-03-27T21:58:34.428Z,14.07
2019-03-27T22:02:40.180Z,14.30
2019-03-27T22:06:45.777Z,13.43
2019-03-27T22:10:51.303Z,12.88
2019-03-27T22:14:56.685Z,14.33
2019-03-27T22:19:02.166Z,13.65
2019-03-27T22:23:08.081Z,27.90
2019-03-27T22:27:13.772Z,17.10
2019-03-27T22:31:19.399Z,13.10
2019-03-27T22:35:24.966Z,13.62
2019-03-27T22:39:30.524Z,13.93
2019-03-27T22:43:35.999Z,13.65
2019-03-27T22:47:41.563Z,14.45
2019-03-27T22:51:47.234Z,13.80
2019-03-27T22:55:52.787Z,16.90
2019-03-27T22:59:58.147Z,14.95
2019-03-27T23:04:03.639Z,13.93
2019-03-27T23:08:09.074Z,13.85
2019-03-27T23:12:14.648Z,12.93
2019-03-27T23:16:20.155Z,13.93
2019-03-27T23:20:25.644Z,14.78
2019-03-27T23:24:31.245Z,13.70
2019-03-27T23:28:36.765Z,13.58
2019-03-27T23:32:42.486Z,13.90
2019-03-27T23:36:48.056Z,14.03
2019-03-27T23:40:53.494Z,13.45
2019-03-27T23:44:58.875Z,13.62
2019-03-27T23:49:04.645Z,13.72
2019-03-27T23:53:10.544Z,14.23
2019-03-27T23:57:16.013Z,14.00
